Time;durP1;ratioP1;P1;durP2;ratioP2;P2;SDS_P1;SDS_P2;PMS_P1;PMS_P2;Temp;Humidity;BMP_temperature;BMP_pressure;BME280_temperature;BME280_humidity;BME280_pressure;Samples;Min_cycle;Max_cycle;Signal;HPM_P1;HPM_P2
2022/01/15 00:01:50;;;;;;;28.10;3.88;;;6.40;99.90;;;;;;5113519;28;20122;-66
2022/01/15 00:04:16;;;;;;;29.60;3.97;;;6.40;99.90;;;;;;5096717;28;20035;-66
2022/01/15 00:06:42;;;;;;;31.90;4.18;;;6.50;99.90;;;;;;5114777;28;20116;-66
2022/01/15 00:09:08;;;;;;;23.80;3.97;;;6.50;99.90;;;;;;5115091;28;20054;-66
2022/01/15 00:11:37;;;;;;;19.38;3.55;;;6.50;99.90;;;;;;5115192;28;20043;-67
2022/01/15 00:14:14;;;;;;;122.50;5.80;;;6.40;99.90;;;;;;5113603;28;20047;-67
2022/01/15 00:16:57;;;;;;;56.20;5.68;;;6.30;99.90;;;;;;5115136;28;20043;-67
2022/01/15 00:19:40;;;;;;;26.48;4.10;;;6.60;99.90;;;;;;5114659;28;20051;-67
2022/01/15 00:22:06;;;;;;;28.95;4.38;;;6.30;99.90;;;;;;5113527;28;20440;-67
2022/01/15 00:24:31;;;;;;;44.20;3.72;;;6.40;99.90;;;;;;5113316;28;20081;-67
2022/01/15 00:26:57;;;;;;;34.00;4.70;;;6.30;99.90;;;;;;5115019;28;20049;-67
2022/01/15 00:29:23;;;;;;;20.00;4.00;;;6.20;99.90;;;;;;5113297;28;20460;-67
2022/01/15 00:31:48;;;;;;;23.85;4.13;;;6.20;99.90;;;;;;5113256;28;20048;-67
2022/01/15 00:34:14;;;;;;;28.60;4.38;;;6.80;99.90;;;;;;5114304;28;20044;-67
2022/01/15 00:36:40;;;;;;;23.88;2.80;;;6.50;99.90;;;;;;5112798;28;20537;-66
2022/01/15 00:39:05;;;;;;;39.80;3.80;;;6.30;99.90;;;;;;5114671;28;20048;-67
2022/01/15 00:41:31;;;;;;;13.77;2.38;;;6.30;99.90;;;;;;5114166;28;20040;-66
2022/01/15 00:43:57;;;;;;;10.88;1.90;;;6.40;99.90;;;;;;5112946;28;20054;-67
2022/01/15 00:46:22;;;;;;;9.57;1.80;;;6.30;99.90;;;;;;5113948;28;20050;-66
2022/01/15 00:48:48;;;;;;;8.35;1.83;;;6.60;99.90;;;;;;5114176;28;20039;-66
2022/01/15 00:51:13;;;;;;;13.73;1.95;;;6.60;99.90;;;;;;5113070;28;20113;-66
2022/01/15 00:53:39;;;;;;;10.90;1.50;;;6.40;99.90;;;;;;5114314;28;20052;-66
2022/01/15 00:56:05;;;;;;;38.13;2.20;;;6.60;99.90;;;;;;5112594;28;20044;-66
2022/01/15 00:58:30;;;;;;;17.85;1.70;;;6.30;99.90;;;;;;5113993;28;20396;-66
2022/01/15 01:00:56;;;;;;;9.30;1.70;;;6.50;99.90;;;;;;5113821;28;20065;-66
2022/01/15 01:03:22;;;;;;;9.15;2.00;;;6.40;99.90;;;;;;5113868;28;20109;-66
2022/01/15 01:05:48;;;;;;;13.20;1.75;;;;;;;;;;5113936;28;20070;-66
2022/01/15 01:08:13;;;;;;;6.43;1.60;;;6.40;99.90;;;;;;5113868;28;20050;-66
2022/01/15 01:11:14;;;;;;;8.52;1.48;;;6.50;99.90;;;;;;5112969;28;20047;-66
2022/01/15 01:24:24;;;;;;;20.98;1.73;;;6.10;99.90;;;;;;5113715;28;20048;-66
2022/01/15 01:27:28;;;;;;;22.77;1.65;;;6.40;99.90;;;;;;5113651;28;20049;-66
2022/01/15 01:32:26;;;;;;;14.48;1.50;;;6.50;99.90;;;;;;5117835;28;20058;-66
2022/01/15 01:34:52;;;;;;;21.30;1.70;;;;;;;;;;5116782;28;20036;-66
2022/01/15 01:37:30;;;;;;;;;;;6.30;99.90;;;;;;5117749;28;20564;-66
2022/01/15 01:40:13;;;;;;;5.25;1.05;;;5.90;99.90;;;;;;5117787;28;19919;-66
2022/01/15 01:42:44;;;;;;;4.68;1.30;;;;;;;;;;5117778;28;20078;-66
2022/01/15 01:45:13;;;;;;;26.60;1.63;;;6.10;99.90;;;;;;5116387;28;20130;-66
2022/01/15 01:47:41;;;;;;;21.13;1.65;;;6.20;99.90;;;;;;5116446;28;20070;-66
2022/01/15 01:50:16;;;;;;;15.10;1.40;;;6.10;99.90;;;;;;5117910;28;20093;-67
2022/01/15 01:52:44;;;;;;;18.85;1.90;;;6.20;99.90;;;;;;5117369;28;20079;-66
2022/01/15 01:55:11;;;;;;;12.35;1.50;;;6.20;99.90;;;;;;5117321;28;20139;-66
2022/01/15 01:57:37;;;;;;;11.25;1.33;;;;;;;;;;5117488;28;20044;-67
2022/01/15 02:00:05;;;;;;;15.43;1.50;;;6.00;99.90;;;;;;5117077;28;20433;-67
2022/01/15 02:02:31;;;;;;;19.45;1.15;;;;;;;;;;5117220;27;20425;-67
2022/01/15 02:05:01;;;;;;;38.25;1.70;;;6.20;99.90;;;;;;5116198;28;20044;-66
2022/01/15 02:07:27;;;;;;;25.73;1.35;;;5.80;99.90;;;;;;5117352;27;20066;-66
2022/01/15 02:09:54;;;;;;;11.85;1.00;;;;;;;;;;5117257;28;20472;-66
2022/01/15 02:12:20;;;;;;;16.75;1.00;;;;;;;;;;5116880;28;20483;-66
2022/01/15 02:14:46;;;;;;;9.85;0.90;;;5.90;99.90;;;;;;5117115;28;20043;-66
2022/01/15 02:17:16;;;;;;;11.63;1.02;;;6.10;99.90;;;;;;5117361;28;20510;-66
2022/01/15 02:19:58;;;;;;;11.85;1.00;;;6.10;99.90;;;;;;5117237;27;20054;-67
2022/01/15 02:25:09;;;;;;;10.93;1.00;;;6.40;99.90;;;;;;5116979;27;20051;-66
2022/01/15 02:27:35;;;;;;;5.22;0.90;;;;;;;;;;5116536;28;20040;-66
2022/01/15 02:30:03;;;;;;;27.58;1.60;;;6.20;99.90;;;;;;5116982;28;20054;-66
2022/01/15 02:32:34;;;;;;;36.53;1.58;;;6.20;99.90;;;;;;5116664;28;20051;-67
2022/01/15 02:35:01;;;;;;;25.73;1.45;;;5.90;99.90;;;;;;5117230;28;20417;-67
2022/01/15 02:37:28;;;;;;;22.63;1.40;;;6.10;99.90;;;;;;5116161;28;20072;-66
2022/01/15 02:39:55;;;;;;;27.70;1.35;;;6.00;99.90;;;;;;5116704;28;20054;-66
2022/01/15 02:42:23;;;;;;;35.17;2.95;;;;;;;;;;5116266;27;20039;-66
2022/01/15 02:44:49;;;;;;;44.00;2.10;;;6.10;99.90;;;;;;5116416;28;20075;-66
2022/01/15 02:49:58;;;;;;;31.08;1.80;;;6.00;99.90;;;;;;5116432;28;20073;-66
2022/01/15 02:52:24;;;;;;;14.85;1.40;;;6.00;99.90;;;;;;5116346;28;20414;-66
2022/01/15 02:54:50;;;;;;;34.25;1.67;;;;;;;;;;5116209;28;20066;-66
2022/01/15 02:57:16;;;;;;;21.73;1.55;;;6.10;99.90;;;;;;5116032;28;20051;-66
2022/01/15 02:59:42;;;;;;;15.93;1.55;;;6.10;99.90;;;;;;5114934;28;20048;-66
2022/01/15 03:02:07;;;;;;;47.90;2.40;;;6.00;99.90;;;;;;5116073;28;20100;-67
2022/01/15 03:04:33;;;;;;;40.97;2.13;;;6.00;99.90;;;;;;5116108;27;20127;-66
2022/01/15 03:06:58;;;;;;;53.67;2.40;;;6.10;99.90;;;;;;5114811;28;20043;-67
2022/01/15 03:09:24;;;;;;;52.58;2.90;;;6.10;99.90;;;;;;5116543;28;20047;-67
2022/01/15 03:11:50;;;;;;;60.10;2.60;;;5.90;99.90;;;;;;5114620;28;20040;-66
2022/01/15 03:14:19;;;;;;;;;;;6.30;99.90;;;;;;5116182;28;20043;-67
2022/01/15 03:16:45;;;;;;;38.67;2.65;;;6.10;99.90;;;;;;5116079;27;19920;-67
2022/01/15 03:19:11;;;;;;;54.15;3.10;;;;;;;;;;5115295;27;20439;-67
2022/01/15 03:21:36;;;;;;;67.32;3.25;;;6.00;99.90;;;;;;5115742;28;20124;-66
2022/01/15 03:24:03;;;;;;;54.47;3.15;;;6.00;99.90;;;;;;5114534;28;20043;-66
2022/01/15 03:26:29;;;;;;;27.80;2.20;;;6.30;99.90;;;;;;5115445;28;20040;-67
2022/01/15 03:28:55;;;;;;;14.68;2.20;;;;;;;;;;5115643;28;20044;-67
2022/01/15 03:31:20;;;;;;;5.18;1.60;;;6.00;99.90;;;;;;5097567;28;20046;-66
2022/01/15 03:33:46;;;;;;;17.98;1.83;;;;;;;;;;5097227;28;20142;-66
2022/01/15 03:36:12;;;;;;;10.00;1.67;;;5.90;99.90;;;;;;5115202;28;20051;-66
2022/01/15 03:38:38;;;;;;;13.15;1.88;;;6.20;99.90;;;;;;5115372;28;20411;-66
2022/01/15 03:41:04;;;;;;;9.25;1.90;;;;;;;;;;5115480;28;20135;-66
2022/01/15 03:43:30;;;;;;;;;;;6.20;99.90;;;;;;5115601;28;20047;-66
2022/01/15 03:45:55;;;;;;;16.08;1.70;;;6.10;99.90;;;;;;5114951;28;19995;-66
2022/01/15 03:48:21;;;;;;;13.60;1.85;;;6.40;99.90;;;;;;5115181;28;20080;-66
2022/01/15 03:50:47;;;;;;;20.02;2.30;;;6.00;99.90;;;;;;5115218;28;20056;-66
2022/01/15 03:53:12;;;;;;;23.67;1.77;;;5.70;99.90;;;;;;5114798;28;20047;-66
2022/01/15 03:55:39;;;;;;;22.17;2.08;;;;;;;;;;5114764;28;20098;-66
2022/01/15 03:58:05;;;;;;;10.68;1.27;;;;;;;;;;5115000;28;20135;-66
2022/01/15 04:00:31;;;;;;;16.23;2.33;;;;;;;;;;5115007;28;20131;-66
2022/01/15 04:02:57;;;;;;;13.10;1.70;;;;;;;;;;5114905;28;20483;-66
2022/01/15 04:05:23;;;;;;;12.50;1.80;;;6.00;99.90;;;;;;5113869;28;20180;-67
2022/01/15 04:07:49;;;;;;;25.92;2.30;;;6.10;99.90;;;;;;5114825;28;20047;-67
2022/01/15 04:10:16;;;;;;;19.35;2.38;;;5.80;99.90;;;;;;5096696;28;20471;-67
2022/01/15 04:12:42;;;;;;;21.38;1.92;;;5.90;99.90;;;;;;5115153;28;20126;-67
2022/01/15 04:15:08;;;;;;;;;;;;;;;;;;5115036;28;20044;-67
2022/01/15 04:17:34;;;;;;;36.75;2.60;;;5.80;99.90;;;;;;5114666;28;19920;-67
2022/01/15 04:19:59;;;;;;;61.97;2.97;;;5.90;99.90;;;;;;5113427;28;20096;-67
2022/01/15 04:22:25;;;;;;;20.27;2.03;;;5.70;99.90;;;;;;5114778;28;20090;-67
2022/01/15 04:24:51;;;;;;;15.23;1.52;;;;;;;;;;5114304;28;20046;-67
2022/01/15 04:27:21;;;;;;;50.72;2.30;;;5.80;99.90;;;;;;5114453;28;20055;-67
2022/01/15 04:29:48;;;;;;;6.18;1.30;;;6.20;99.90;;;;;;5114390;28;20053;-67
2022/01/15 04:32:13;;;;;;;;;;;5.90;99.90;;;;;;5114770;28;20058;-67
2022/01/15 04:34:40;;;;;;;12.00;1.80;;;5.90;99.90;;;;;;5113929;28;19920;-67
2022/01/15 04:37:12;;;;;;;10.00;1.58;;;5.80;99.90;;;;;;5113875;28;20411;-67
2022/01/15 04:39:39;;;;;;;3.33;1.25;;;;;;;;;;5114434;28;20055;-67
2022/01/15 04:42:05;;;;;;;47.22;1.73;;;6.00;99.90;;;;;;5114277;28;20090;-67
2022/01/15 04:44:31;;;;;;;7.60;1.30;;;;;;;;;;5114172;28;20075;-67
2022/01/15 04:46:59;;;;;;;13.35;1.55;;;5.90;99.90;;;;;;5114564;28;20091;-67
2022/01/15 04:49:25;;;;;;;23.20;1.58;;;6.00;99.90;;;;;;5113052;28;20054;-67
2022/01/15 04:51:50;;;;;;;16.83;1.52;;;6.30;99.90;;;;;;5113849;28;20132;-67
2022/01/15 04:54:16;;;;;;;32.38;1.90;;;6.00;99.90;;;;;;5113937;28;20494;-67
2022/01/15 04:56:42;;;;;;;27.80;1.92;;;6.00;99.90;;;;;;5113095;28;20056;-67
2022/01/15 04:59:10;;;;;;;35.60;2.42;;;6.00;99.90;;;;;;5114013;28;20101;-67
2022/01/15 05:01:36;;;;;;;47.83;2.88;;;5.90;99.90;;;;;;5114061;28;20052;-67
2022/01/15 05:04:01;;;;;;;59.53;3.10;;;6.20;99.90;;;;;;5113515;28;20130;-67
2022/01/15 05:06:27;;;;;;;27.08;2.53;;;5.80;99.90;;;;;;5113024;28;20097;-67
2022/01/15 05:09:02;;;;;;;28.80;2.60;;;5.90;99.90;;;;;;5112823;28;20040;-67
2022/01/15 05:11:32;;;;;;;14.45;2.13;;;5.90;99.90;;;;;;5112926;28;20047;-67
2022/01/15 05:13:58;;;;;;;7.03;2.28;;;6.20;99.90;;;;;;5113724;28;20055;-67
2022/01/15 05:16:23;;;;;;;7.63;2.35;;;5.90;99.90;;;;;;5113740;28;20043;-67
2022/01/15 05:18:49;;;;;;;7.28;2.50;;;;;;;;;;5113709;28;20123;-66
2022/01/15 05:21:15;;;;;;;7.75;2.28;;;5.80;99.90;;;;;;5113489;28;20052;-66
2022/01/15 05:23:41;;;;;;;8.95;2.60;;;6.00;99.90;;;;;;5113768;28;20051;-67
2022/01/15 05:26:07;;;;;;;9.18;2.53;;;6.00;99.90;;;;;;5113701;28;20100;-67
2022/01/15 05:28:32;;;;;;;11.07;2.60;;;6.00;99.90;;;;;;5113745;28;20388;-67
2022/01/15 05:30:58;;;;;;;7.03;2.70;;;6.00;99.90;;;;;;5112430;28;20392;-66
2022/01/15 05:33:23;;;;;;;8.30;2.90;;;5.90;99.90;;;;;;5112412;28;20044;-67
2022/01/15 05:35:50;;;;;;;6.63;2.40;;;;;;;;;;5112309;28;20176;-67
2022/01/15 05:38:15;;;;;;;8.57;2.60;;;6.10;99.90;;;;;;5114070;28;20043;-67
2022/01/15 05:40:41;;;;;;;8.77;2.63;;;6.10;99.90;;;;;;5112449;28;20432;-67
2022/01/15 05:43:07;;;;;;;6.30;2.53;;;;;;;;;;5112640;28;20096;-67
2022/01/15 05:45:33;;;;;;;7.60;2.50;;;6.40;99.90;;;;;;5113506;28;20039;-67
2022/01/15 05:47:59;;;;;;;6.93;2.65;;;;;;;;;;5113618;28;20119;-67
2022/01/15 05:50:25;;;;;;;6.15;2.50;;;;;;;;;;5113186;28;20073;-67
2022/01/15 05:52:51;;;;;;;5.47;2.60;;;;;;;;;;5113505;28;20089;-67
2022/01/15 05:55:17;;;;;;;6.90;2.90;;;6.00;99.90;;;;;;5112215;28;20048;-67
2022/01/15 05:57:42;;;;;;;6.80;3.38;;;6.10;99.90;;;;;;5112234;28;20054;-67
2022/01/15 06:00:08;;;;;;;8.88;3.25;;;6.10;99.90;;;;;;5112382;28;20130;-66
2022/01/15 06:02:34;;;;;;;7.72;3.75;;;6.10;99.90;;;;;;5113094;28;20484;-67
2022/01/15 06:05:00;;;;;;;5.57;3.15;;;5.90;99.90;;;;;;5113102;28;20038;-67
2022/01/15 06:07:26;;;;;;;7.30;3.42;;;6.10;99.90;;;;;;5112140;28;20120;-66
2022/01/15 06:09:52;;;;;;;9.25;3.40;;;6.40;99.90;;;;;;5112048;28;20048;-67
2022/01/15 06:12:18;;;;;;;7.65;3.72;;;;;;;;;;5112459;28;20044;-66
2022/01/15 06:14:44;;;;;;;5.18;2.90;;;;;;;;;;5112832;28;20499;-66
2022/01/15 06:17:10;;;;;;;4.55;2.47;;;5.90;99.90;;;;;;5115653;28;20055;-67
2022/01/15 06:19:37;;;;;;;3.40;2.38;;;;;;;;;;5116830;28;20055;-67
2022/01/15 06:22:03;;;;;;;2.92;1.90;;;;;;;;;;5116957;28;20044;-67
2022/01/15 06:24:29;;;;;;;3.20;2.03;;;6.00;99.90;;;;;;5116919;28;20429;-67
2022/01/15 06:26:56;;;;;;;6.82;2.45;;;7.00;99.90;;;;;;5116832;28;20044;-66
2022/01/15 06:29:22;;;;;;;5.65;2.33;;;;;;;;;;5116855;28;20056;-67
2022/01/15 06:31:48;;;;;;;4.97;2.63;;;5.80;99.90;;;;;;5115710;28;20503;-66
2022/01/15 06:34:13;;;;;;;5.18;2.13;;;6.00;99.90;;;;;;5116653;28;20047;-66
2022/01/15 06:36:39;;;;;;;7.05;2.40;;;5.80;99.90;;;;;;5116706;28;20499;-67
2022/01/15 06:39:05;;;;;;;5.60;2.50;;;5.80;99.90;;;;;;5116571;28;20389;-66
2022/01/15 06:41:31;;;;;;;6.72;2.78;;;;;;;;;;5116575;28;20395;-66
2022/01/15 06:43:57;;;;;;;5.72;2.70;;;5.70;99.90;;;;;;5115369;28;20055;-66
2022/01/15 06:46:22;;;;;;;4.40;2.60;;;6.00;99.90;;;;;;5115256;28;20070;-66
2022/01/15 06:48:48;;;;;;;4.25;2.45;;;5.70;99.90;;;;;;5115058;28;20130;-66
2022/01/15 06:51:14;;;;;;;4.10;2.53;;;5.90;99.90;;;;;;5116677;28;20043;-67
2022/01/15 06:53:39;;;;;;;5.75;2.97;;;5.60;99.90;;;;;;5116346;28;20143;-67
2022/01/15 06:56:06;;;;;;;4.18;2.30;;;;;;;;;;5116281;27;20040;-67
2022/01/15 06:58:31;;;;;;;5.50;2.70;;;6.00;99.90;;;;;;5116180;28;20130;-67
2022/01/15 07:00:57;;;;;;;4.68;2.20;;;6.20;99.90;;;;;;5116192;28;20086;-67
2022/01/15 07:03:23;;;;;;;5.07;2.50;;;5.70;99.90;;;;;;5097830;28;20413;-67
2022/01/15 07:05:48;;;;;;;4.90;2.33;;;5.70;99.90;;;;;;5116056;28;20048;-67
2022/01/15 07:08:14;;;;;;;5.97;2.35;;;5.80;99.90;;;;;;5115971;28;20039;-67
2022/01/15 07:10:41;;;;;;;4.72;1.90;;;5.80;99.90;;;;;;5116009;28;20176;-66
2022/01/15 07:13:07;;;;;;;5.63;1.95;;;;;;;;;;5097816;28;20058;-67
2022/01/15 07:15:34;;;;;;;3.35;2.13;;;5.80;99.90;;;;;;5115785;28;20476;-67
2022/01/15 07:18:00;;;;;;;3.60;1.83;;;;;;;;;;5114658;28;20395;-66
2022/01/15 07:20:27;;;;;;;;;;;5.80;99.90;;;;;;5115375;28;20060;-66
2022/01/15 07:22:53;;;;;;;6.55;2.30;;;5.60;99.90;;;;;;5111271;28;19959;-67
2022/01/15 07:25:19;;;;;;;5.10;2.00;;;5.70;99.90;;;;;;5113757;28;20040;-67
2022/01/15 07:27:45;;;;;;;4.97;2.70;;;5.80;99.90;;;;;;5111512;28;20054;-67
2022/01/15 07:30:13;;;;;;;4.97;2.70;;;5.80;99.90;;;;;;5113149;28;20039;-67
2022/01/15 07:32:40;;;;;;;5.20;2.60;;;;;;;;;;5112573;28;20445;-67
2022/01/15 07:35:07;;;;;;;8.55;3.47;;;6.00;99.90;;;;;;5113383;28;20503;-66
2022/01/15 07:37:33;;;;;;;6.30;3.63;;;;;;;;;;5111488;28;20483;-66
2022/01/15 07:40:00;;;;;;;10.40;3.78;;;5.70;99.90;;;;;;5112661;28;20096;-67
2022/01/15 07:42:28;;;;;;;9.00;4.53;;;;;;;;;;5113081;28;20051;-66
2022/01/15 07:44:54;;;;;;;10.98;4.25;;;;;;;;;;5113560;28;20052;-66
2022/01/15 07:47:21;;;;;;;8.25;4.28;;;;;;;;;;5111370;28;20048;-66
2022/01/15 07:49:46;;;;;;;10.75;4.88;;;5.70;99.90;;;;;;5111184;28;20134;-67
2022/01/15 07:52:12;;;;;;;10.20;4.13;;;;;;;;;;5112149;28;20464;-67
2022/01/15 07:54:38;;;;;;;9.80;4.68;;;5.70;99.90;;;;;;5113296;28;20039;-66
2022/01/15 07:57:04;;;;;;;10.18;4.90;;;5.60;99.90;;;;;;5111443;28;20496;-67
2022/01/15 07:59:30;;;;;;;11.38;5.00;;;;;;;;;;5111708;28;20036;-68
2022/01/15 08:01:56;;;;;;;12.98;5.00;;;;;;;;;;5094157;28;20044;-67
2022/01/15 08:04:22;;;;;;;9.20;4.75;;;;;;;;;;5112923;28;20044;-67
2022/01/15 08:06:48;;;;;;;11.20;5.10;;;5.90;99.90;;;;;;5111098;27;20112;-66
2022/01/15 08:09:14;;;;;;;12.95;4.75;;;;;;;;;;5112948;28;20372;-67
2022/01/15 08:11:40;;;;;;;11.52;4.50;;;;;;;;;;5112323;28;20040;-68
2022/01/15 08:14:06;;;;;;;11.75;4.90;;;;;;;;;;5112541;28;20051;-67
2022/01/15 08:16:32;;;;;;;14.27;5.43;;;;;;;;;;5106551;28;20694;-67
2022/01/15 08:18:58;;;;;;;11.13;5.53;;;;;;;;;;5107160;28;20048;-66
2022/01/15 08:21:24;;;;;;;12.18;5.20;;;5.60;99.90;;;;;;5111855;28;20051;-67
2022/01/15 08:23:49;;;;;;;12.77;5.03;;;6.10;99.90;;;;;;5112001;28;20043;-66
2022/01/15 08:26:15;;;;;;;12.25;5.00;;;;;;;;;;5106806;28;20403;-69
2022/01/15 08:28:41;;;;;;;9.95;4.57;;;5.90;99.90;;;;;;5111134;28;20100;-66
2022/01/15 08:31:07;;;;;;;12.40;4.82;;;5.40;99.90;;;;;;5111742;28;20445;-67
2022/01/15 08:33:34;;;;;;;9.65;4.38;;;;;;;;;;5110474;28;20061;-66
2022/01/15 08:36:00;;;;;;;8.98;3.95;;;5.80;99.90;;;;;;5111422;28;20040;-67
2022/01/15 08:38:26;;;;;;;9.80;3.58;;;;;;;;;;5112558;27;20060;-67
2022/01/15 08:40:52;;;;;;;7.55;3.40;;;;;;;;;;5112330;28;20124;-66
2022/01/15 08:43:18;;;;;;;7.93;3.75;;;5.70;99.90;;;;;;5113843;28;20488;-66
2022/01/15 08:45:46;;;;;;;7.82;3.15;;;5.80;99.90;;;;;;5113894;28;20039;-66
2022/01/15 08:48:12;;;;;;;6.85;3.35;;;5.80;99.90;;;;;;5114144;28;20039;-66
2022/01/15 08:50:37;;;;;;;6.32;2.90;;;6.00;99.90;;;;;;5114415;28;20535;-66
2022/01/15 08:53:06;;;;;;;8.30;3.50;;;5.80;99.90;;;;;;5114095;28;20048;-66
2022/01/15 08:55:32;;;;;;;8.50;3.53;;;;;;;;;;5112784;28;20046;-66
2022/01/15 08:57:58;;;;;;;;;;;5.60;99.90;;;;;;5114325;28;20097;-66
2022/01/15 09:00:24;;;;;;;9.88;3.85;;;;;;;;;;5112509;28;19970;-66
2022/01/15 09:02:50;;;;;;;11.25;4.40;;;5.80;99.90;;;;;;5113881;28;20047;-66
2022/01/15 09:05:16;;;;;;;8.82;4.35;;;;;;;;;;5114145;28;20576;-66
2022/01/15 09:07:42;;;;;;;;;;;;;;;;;;5113230;28;20054;-66
2022/01/15 09:10:09;;;;;;;8.95;3.95;;;5.70;99.90;;;;;;5113741;28;19920;-67
2022/01/15 09:12:35;;;;;;;9.98;4.53;;;;;;;;;;5113403;28;20071;-66
2022/01/15 09:15:01;;;;;;;11.13;4.53;;;5.70;99.90;;;;;;5112233;28;20427;-66
2022/01/15 09:17:27;;;;;;;12.40;4.68;;;5.70;99.90;;;;;;5114007;28;20043;-66
2022/01/15 09:19:53;;;;;;;14.45;4.90;;;5.80;99.90;;;;;;5113976;28;20048;-66
2022/01/15 09:22:20;;;;;;;9.65;4.55;;;5.70;99.90;;;;;;5113319;28;20479;-66
2022/01/15 09:24:47;;;;;;;10.30;5.35;;;;;;;;;;5112739;28;20059;-66
2022/01/15 09:30:12;;;;;;;14.00;5.55;;;5.90;99.90;;;;;;5113751;28;20074;-66
2022/01/15 09:32:59;;;;;;;12.38;5.72;;;;;;;;;;5113593;28;20052;-66
2022/01/15 09:35:27;;;;;;;12.73;5.32;;;5.70;99.90;;;;;;5112503;28;20081;-66
2022/01/15 09:37:54;;;;;;;14.02;5.75;;;5.90;99.90;;;;;;5113844;28;20092;-66
2022/01/15 09:40:28;;;;;;;;;;;5.80;99.90;;;;;;5114692;28;20122;-66
2022/01/15 09:42:55;;;;;;;15.82;6.40;;;5.60;99.90;;;;;;5113340;28;19919;-66
2022/01/15 09:45:23;;;;;;;18.13;7.35;;;6.10;99.90;;;;;;5112558;28;20085;-67
2022/01/15 09:47:53;;;;;;;17.05;7.03;;;;;;;;;;5113426;28;20079;-66
2022/01/15 09:50:19;;;;;;;18.20;7.47;;;6.00;99.90;;;;;;5113411;28;20047;-66
2022/01/15 09:52:45;;;;;;;17.98;7.95;;;;;;;;;;5116081;28;20384;-67
2022/01/15 09:55:13;;;;;;;20.52;7.95;;;5.90;99.90;;;;;;5117050;28;20472;-67
2022/01/15 09:57:40;;;;;;;22.77;8.32;;;6.00;99.90;;;;;;5115903;28;20055;-67
2022/01/15 10:00:08;;;;;;;21.58;8.30;;;;;;;;;;5117330;28;20058;-66
2022/01/15 10:02:34;;;;;;;19.67;8.45;;;6.00;99.90;;;;;;5117542;28;20094;-66
2022/01/15 10:05:00;;;;;;;21.00;8.05;;;6.30;99.90;;;;;;5117694;28;20079;-66
2022/01/15 10:07:28;;;;;;;15.73;6.93;;;5.80;99.90;;;;;;5117192;28;20083;-66
2022/01/15 10:09:55;;;;;;;15.98;6.85;;;6.20;99.90;;;;;;5117134;28;20127;-66
2022/01/15 10:12:31;;;;;;;19.20;7.20;;;;;;;;;;5116847;28;20047;-67
2022/01/15 10:15:04;;;;;;;19.92;7.53;;;;;;;;;;5116871;28;20130;-67
2022/01/15 10:17:36;;;;;;;18.65;7.18;;;6.00;99.90;;;;;;5117291;27;20126;-67
2022/01/15 10:20:05;;;;;;;18.45;6.63;;;6.40;99.90;;;;;;5116087;28;20060;-66
2022/01/15 10:22:34;;;;;;;19.20;7.13;;;;;;;;;;5116048;28;20131;-67
2022/01/15 10:25:07;;;;;;;17.45;6.82;;;6.00;99.90;;;;;;5115912;28;20078;-66
2022/01/15 10:27:35;;;;;;;19.83;6.88;;;6.00;99.90;;;;;;5116588;27;20044;-66
2022/01/15 10:30:12;;;;;;;19.25;7.28;;;6.10;99.90;;;;;;5115514;28;20039;-66
2022/01/15 10:32:58;;;;;;;14.88;6.00;;;6.20;99.90;;;;;;5116700;28;20054;-67
2022/01/15 10:35:32;;;;;;;16.98;6.97;;;5.90;99.90;;;;;;5098361;28;20040;-66
2022/01/15 10:38:00;;;;;;;18.55;7.45;;;5.80;99.90;;;;;;5116133;28;20574;-67
2022/01/15 10:40:28;;;;;;;18.40;6.90;;;;;;;;;;5116261;28;20132;-67
2022/01/15 10:42:58;;;;;;;15.80;7.00;;;5.80;99.90;;;;;;5114981;28;20131;-66
2022/01/15 10:45:31;;;;;;;18.40;7.55;;;6.10;99.90;;;;;;5116527;28;20123;-67
2022/01/15 10:48:00;;;;;;;22.02;8.82;;;5.90;99.90;;;;;;5117087;28;20071;-66
2022/01/15 10:50:32;;;;;;;18.58;7.63;;;6.20;99.90;;;;;;5115530;28;20127;-67
2022/01/15 10:53:03;;;;;;;21.95;9.48;;;5.70;99.90;;;;;;5116249;28;20065;-67
2022/01/15 10:55:33;;;;;;;19.05;8.07;;;5.80;99.90;;;;;;5116377;28;20087;-67
2022/01/15 10:58:18;;;;;;;23.25;9.15;;;;;;;;;;5115001;28;20044;-67
2022/01/15 11:00:46;;;;;;;20.23;8.57;;;;;;;;;;5116722;28;20044;-67
2022/01/15 11:03:14;;;;;;;24.50;9.35;;;;;;;;;;5116044;28;20043;-67
2022/01/15 11:05:47;;;;;;;20.10;9.50;;;;;;;;;;5116316;28;20391;-67
2022/01/15 11:08:23;;;;;;;21.58;9.65;;;5.70;99.90;;;;;;5116021;28;20044;-67
2022/01/15 11:10:59;;;;;;;21.25;8.80;;;5.70;99.90;;;;;;5114357;28;20040;-67
2022/01/15 11:13:27;;;;;;;22.55;9.82;;;6.30;99.90;;;;;;5115981;28;20122;-67
2022/01/15 11:16:00;;;;;;;23.75;10.43;;;;;;;;;;5115782;28;20043;-66
2022/01/15 11:18:28;;;;;;;23.45;9.82;;;;;;;;;;5115894;27;20177;-67
2022/01/15 11:20:57;;;;;;;22.60;9.95;;;6.10;99.90;;;;;;5115740;28;20130;-67
2022/01/15 11:23:25;;;;;;;20.85;8.95;;;;;;;;;;5115477;28;20046;-67
2022/01/15 11:25:51;;;;;;;22.35;10.27;;;;;;;;;;5114712;28;20052;-66
2022/01/15 11:28:24;;;;;;;25.20;10.52;;;5.90;99.90;;;;;;5115587;28;20048;-66
2022/01/15 11:30:55;;;;;;;19.75;10.40;;;5.70;99.90;;;;;;5115579;27;20043;-66
2022/01/15 11:33:24;;;;;;;22.27;9.88;;;6.00;99.90;;;;;;5115258;28;20526;-66
2022/01/15 11:35:51;;;;;;;28.92;11.73;;;;;;;;;;5112535;28;20048;-67
2022/01/15 11:38:41;;;;;;;31.45;11.65;;;5.70;99.90;;;;;;5114657;28;20384;-67
2022/01/15 11:41:27;;;;;;;25.20;9.93;;;;;;;;;;5115603;28;20142;-67
2022/01/15 11:44:00;;;;;;;27.63;10.15;;;5.80;99.90;;;;;;5111337;28;20052;-67
2022/01/15 11:46:31;;;;;;;26.75;10.95;;;;;;;;;;5114164;28;20180;-67
2022/01/15 11:49:24;;;;;;;26.17;10.73;;;5.80;99.90;;;;;;5115137;28;20051;-67
2022/01/15 11:51:54;;;;;;;31.85;12.40;;;;;;;;;;5113854;28;20044;-67
2022/01/15 11:54:20;;;;;;;30.67;13.13;;;6.00;99.90;;;;;;5114815;28;20391;-67
2022/01/15 11:56:47;;;;;;;33.47;13.63;;;5.70;99.90;;;;;;5113844;28;20043;-67
2022/01/15 11:59:27;;;;;;;33.92;12.85;;;5.80;99.90;;;;;;5115014;28;20080;-67
2022/01/15 12:01:56;;;;;;;30.35;12.55;;;;;;;;;;5114943;28;20116;-67
2022/01/15 12:04:34;;;;;;;34.28;13.98;;;5.70;99.90;;;;;;5114780;27;20094;-67
2022/01/15 12:07:06;;;;;;;33.55;13.65;;;;;;;;;;5113245;28;20581;-67
2022/01/15 12:09:44;;;;;;;36.80;13.70;;;5.70;99.90;;;;;;5114398;28;20063;-67
2022/01/15 12:12:20;;;;;;;22.73;11.07;;;5.60;99.90;;;;;;5114691;28;20054;-67
2022/01/15 12:14:51;;;;;;;25.50;11.23;;;;;;;;;;5114049;28;20050;-67
2022/01/15 12:17:42;;;;;;;28.83;11.82;;;5.70;99.90;;;;;;5114574;28;20093;-67
2022/01/15 12:20:17;;;;;;;31.35;12.30;;;5.60;99.90;;;;;;5114577;28;20132;-67
2022/01/15 12:22:46;;;;;;;39.05;14.18;;;;;;;;;;5113263;28;20134;-66
2022/01/15 12:25:18;;;;;;;31.35;12.82;;;5.60;99.90;;;;;;5114433;28;20113;-66
2022/01/15 12:27:56;;;;;;;35.88;13.73;;;5.70;99.90;;;;;;5114370;28;20090;-67
2022/01/15 12:30:23;;;;;;;31.95;12.90;;;;;;;;;;5114420;27;20048;-67
2022/01/15 12:32:52;;;;;;;31.33;13.50;;;5.60;99.90;;;;;;5113407;28;20051;-67
2022/01/15 12:35:26;;;;;;;37.67;13.80;;;;;;;;;;5130330;27;20055;-67
2022/01/15 12:37:59;;;;;;;35.75;14.30;;;;;;;;;;5114107;28;20081;-67
2022/01/15 12:40:36;;;;;;;40.38;13.73;;;;;;;;;;5112945;28;20048;-68
2022/01/15 12:43:07;;;;;;;48.28;16.13;;;5.40;99.90;;;;;;5113310;28;20039;-67
2022/01/15 12:45:34;;;;;;;39.65;14.45;;;;;;;;;;5114184;28;20043;-67
2022/01/15 12:48:00;;;;;;;48.35;16.65;;;5.70;99.90;;;;;;5113103;28;20452;-66
2022/01/15 12:50:27;;;;;;;53.58;16.17;;;5.60;99.90;;;;;;5113743;28;20757;-66
2022/01/15 12:53:04;;;;;;;39.35;14.07;;;;;;;;;;5113934;28;20088;-67
2022/01/15 12:55:34;;;;;;;48.05;15.68;;;5.60;99.90;;;;;;5112738;28;20046;-67
2022/01/15 12:58:01;;;;;;;66.68;15.48;;;;;;;;;;5112933;28;20047;-67
2022/01/15 13:00:30;;;;;;;57.97;14.40;;;5.60;99.90;;;;;;5095931;28;20059;-67
2022/01/15 13:02:59;;;;;;;82.65;14.93;;;5.90;99.90;;;;;;5113806;28;20048;-67
2022/01/15 13:05:28;;;;;;;94.25;14.95;;;5.40;99.90;;;;;;5112553;28;20111;-67
2022/01/15 13:08:03;;;;;;;114.53;16.25;;;5.60;99.90;;;;;;5112757;28;20055;-67
2022/01/15 13:10:47;;;;;;;100.55;15.40;;;;;;;;;;5112491;28;20050;-67
2022/01/15 13:13:33;;;;;;;113.32;17.02;;;;;;;;;;5114210;28;20141;-67
2022/01/15 13:16:04;;;;;;;141.73;17.67;;;;;;;;;;5113835;28;20477;-67
2022/01/15 13:18:36;;;;;;;151.65;20.17;;;5.50;99.90;;;;;;5113761;28;20051;-67
2022/01/15 13:21:09;;;;;;;75.25;16.33;;;5.30;99.90;;;;;;5112259;28;20048;-67
2022/01/15 13:23:58;;;;;;;106.97;17.65;;;5.60;99.90;;;;;;5114300;28;20075;-67
2022/01/15 13:26:27;;;;;;;118.22;18.40;;;5.50;99.90;;;;;;5115128;28;20045;-67
2022/01/15 13:28:57;;;;;;;122.65;18.55;;;5.40;99.90;;;;;;5117817;28;20039;-67
2022/01/15 13:31:26;;;;;;;90.25;18.15;;;;;;;;;;5117839;28;20403;-67
2022/01/15 13:33:52;;;;;;;69.00;16.92;;;;;;;;;;5116501;28;20081;-67
2022/01/15 13:36:19;;;;;;;45.80;14.20;;;5.60;99.90;;;;;;5117645;28;20043;-67
2022/01/15 13:38:49;;;;;;;91.95;15.10;;;5.60;99.90;;;;;;5117047;28;20414;-67
2022/01/15 13:41:23;;;;;;;84.45;15.90;;;5.60;99.90;;;;;;5117669;28;20128;-67
2022/01/15 13:43:55;;;;;;;54.63;15.73;;;5.50;99.90;;;;;;5117642;28;20130;-67
2022/01/15 13:46:29;;;;;;;44.00;15.02;;;5.30;99.90;;;;;;5117557;28;20479;-67